Terminal Aerodrome Forecast
Issued by NWS Detroit/Pontiac, MI

Home | Current Version | Previous Version | Text Only | Print | Product List | Glossary On
Versions: 1 2 3 4 5 6 7 8 9 10 11 12 13 14 15 16 17 18 19 20 21 22
925
FTUS43 KDTX 241729
TAFFNT
TAF
KFNT 241729Z 2418/2518 13008KT 3SM BR OVC004
     FM242000 18005KT 5SM -SHRA OVC018
     FM242300 19007KT 4SM SHRA SCT012 OVC025
      TEMPO 2423/2503 2SM TSRA OVC006CB
     FM250600 24012G24KT 6SM BR OVC015
     FM251400 24014G28KT 5SM -SHSN OVC020=

USA.gov is the U.S. government's official web portal to all federal, state and local government web resources and services.